ADDS METAR Data INFO
IDs: Format: Raw Decoded Include TAF

Data at: 0914 UTC 25 Feb 2018

KSLR 250855Z AUTO 00000KT 10SM CLR 08/06 A3004 RMK AO2 T00800061
KSLR 250835Z AUTO 02006KT 10SM CLR 08/06 A3003 RMK AO2 T00800063
KSLR 250815Z AUTO 02003KT 10SM CLR 09/07 A3004 RMK AO2 T00860070
KSLR 250755Z AUTO 04003KT 10SM CLR 09/08 A3004 RMK AO2 T00870076
KSLR 250735Z AUTO 00000KT 10SM CLR 09/08 A3005 RMK AO2 T00900080
KSLR 250715Z AUTO 01004KT 10SM CLR 10/08 A3006 RMK AO2 T00950080
KSLR 250655Z AUTO 00000KT 10SM CLR 10/08 A3006 RMK AO2 T00960081
KSLR 250635Z AUTO 00000KT 10SM SCT085 10/08 A3006 RMK AO2 T01000081
KSLR 250615Z AUTO 00000KT 10SM SCT085 10/08 A3005 RMK AO2 T00990081
KSLR 250555Z AUTO 01004KT 10SM CLR 10/08 A3004 RMK AO2 T00990084 10140 20085 402160085
KSLR 250535Z AUTO 01004KT 10SM CLR 09/09 A3004 RMK AO2 T00920092
KSLR 250515Z AUTO 35004KT 10SM CLR 09/09 A3003 RMK AO2 T00910091
KSLR 250455Z AUTO 00000KT 4SM BR SCT075 10/10 A3003 RMK AO2 T00950095
KSLR 250435Z AUTO 00000KT 5SM BR CLR 09/09 A3003 RMK AO2 T00900090
KSLR 250415Z AUTO 00000KT 2 1/2SM BR CLR 09/09 A3002 RMK AO2 T00890089
KSLR 250355Z AUTO 00000KT 1SM BR VV007 09/09 A3001 RMK AO2 T00940094
KSLR 250335Z AUTO 00000KT 1 1/4SM BR VV007 09/09 A3000 RMK AO2 T00920092
KSLR 250315Z AUTO 00000KT 10SM CLR 10/10 A3000 RMK AO2 T01030103
KSLR 250255Z AUTO 00000KT 10SM CLR 10/10 A2999 RMK AO2 T00980095
KSLR 250235Z AUTO 00000KT 10SM CLR 11/11 A2998 RMK AO2 T01140106
KSLR 250215Z AUTO 00000KT 10SM CLR 12/10 A2997 RMK AO2 T01150104
KSLR 250155Z AUTO 00000KT 10SM CLR 11/10 A2996 RMK AO2 T01050097
KSLR 250135Z AUTO 00000KT 10SM CLR 13/10 A2996 RMK AO2 T01250102
KSLR 250115Z AUTO 00000KT 10SM CLR 12/10 A2995 RMK AO2 T01200101
KSLR 250055Z AUTO 00000KT 10SM SCT120 13/10 A2995 RMK AO2 T01300097
KSLR 250035Z AUTO 00000KT 10SM BKN120 13/10 A2994 RMK AO2 T01300100
KSLR 250015Z AUTO 33003KT 10SM BKN110 13/10 A2992 RMK AO2 T01340098
KSLR 242355Z AUTO 30005KT 10SM OVC110 14/10 A2992 RMK AO2 60055 T01410099 10216 20120
KSLR 242335Z AUTO 29005KT 10SM OVC110 14/11 A2991 RMK AO2 T01420109
KSLR 242315Z AUTO 00000KT 10SM BKN110 14/12 A2990 RMK AO2 T01430124
KSLR 242255Z AUTO 00000KT 10SM SCT070 OVC110 14/13 A2989 RMK AO2 T01380130
KSLR 242235Z AUTO 00000KT 10SM SCT070 BKN080 OVC110 13/13 A2989 RMK AO2 T01330126
KSLR 242215Z AUTO 00000KT 10SM BKN080 OVC110 13/12 A2988 RMK AO2 T01280122
KSLR 242155Z AUTO 30005KT 10SM SCT029 BKN080 OVC095 13/12 A2987 RMK AO2 LTG DSNT SE T01250120
KSLR 242135Z AUTO 27006KT 10SM SCT070 OVC080 12/12 A2987 RMK AO2 T01220116
KSLR 242115Z AUTO 28007KT 10SM -RA SCT041 BKN050 OVC070 12/12 A2987 RMK AO2 LTG DSNT SE T01200115
KSLR 242055Z AUTO 30009KT 7SM RA BKN034 OVC041 12/12 A2987 RMK AO2 60055 T01200115
KSLR 242035Z AUTO 30007KT 10SM OVC029 12/12 A2986 RMK AO2 T01220115
KSLR 242015Z AUTO 30008KT 10SM -DZ SCT007 OVC029 12/12 A2984 RMK AO2 LTG DSNT E T01210116
KSLR 241955Z AUTO 29008KT 10SM RA BKN007 OVC029 12/12 A2984 RMK AO2 P0038 T01200118
KSLR 241935Z AUTO 28011G21KT 4SM +RA OVC007 12/12 A2986 RMK AO2 LTG DSNT NE S AND SW P0035 T01210118
KSLR 241915Z AUTO 28014G27KT 1 1/2SM +TSRA OVC007 13/12 A2985 RMK AO2 LTG DSNT SE THRU SW P0027 T01250122
KSLR 241855Z AUTO 28019G29KT 2 1/2SM +RA SCT007 BKN017 OVC028 14/13 A2985 RMK AO2 LTG DSNT S P0014 T01440130
KSLR 241835Z AUTO 19022G31KT 5SM -RA BKN019 OVC025 21/20 A2979 RMK AO2 LTG DSNT SW THRU NE P0001 T02120196
KSLR 241815Z AUTO 20025G29KT 10SM VCTS BKN018 OVC022 22/20 A2979 RMK AO2 LTG DSNT SW THRU NW T02160196
KSLR 241755Z AUTO 19021G27KT 10SM OVC016 22/20 A2979 RMK AO2 LTG DSNT SW THRU N 60029 T02150200 10215 20118
KSLR 241735Z AUTO 19023G30KT 10SM OVC014 21/21 A2979 RMK AO2 LTG DSNT N AND NW T02120212
KSLR 241715Z AUTO 19022G28KT 10SM OVC012 21/21 A2980 RMK AO2 LTG DSNT W THRU N T02100210
KSLR 241655Z AUTO 18020G26KT 10SM OVC010 20/20 A2980 RMK AO2 LTG DSNT NE AND W T02030203
KSLR 241635Z AUTO 18016G20KT 7SM BKN008 BKN014 BKN021 20/20 A2981 RMK AO2 LTG DSNT ALQS T02010201
KSLR 241615Z AUTO 16020G30KT 7SM SCT005 SCT019 SCT045 20/20 A2979 RMK AO2 LTG DSNT NE AND NW T02000200
KSLR 241555Z AUTO 15021G31KT 1 1/4SM VCTSRA BKN013 BKN042 OVC060 19/19 A2978 RMK AO2 LTG DSNT E THRU W P0026 T01920192
KSLR 241535Z AUTO 18012G16KT 4SM VCTSRA SCT009 BKN022 OVC065 19/19 A2987 RMK AO2 LTG DSNT NE THRU SW P0004 T01910191
KSLR 241515Z AUTO 18011G19KT 5SM -RA BKN013 BKN022 OVC030 19/19 A2988 RMK AO2 LTG DSNT ALQS P0001 T01890189
KSLR 241455Z AUTO 17009KT 3SM TSRA BKN013 BKN018 OVC025 18/18 A2987 RMK AO2 LTG DSNT NW THRU E P0002 60002 T01770177
KSLR 241435Z AUTO 16008KT 2 1/2SM -VCTSRA BKN003 BKN015 OVC023 16/16 A2988 RMK AO2 LTG DSNT W THRU E P0001 T01640164
KSLR 241415Z AUTO 12006KT 1/2SM -RA OVC003 14/14 A2987 RMK AO2 LTG DSNT W AND NW T01370137
KSLR 241355Z AUTO 11004KT 3/4SM BR OVC003 13/13 A2988 RMK AO2 LTG DSNT NE AND W T01300130
KSLR 241335Z AUTO 09005KT 3/4SM -RA OVC003 13/13 A2988 RMK AO2 LTG DSNT W THRU NE T01280128
KSLR 241315Z AUTO 10006KT 1SM BR OVC003 13/13 A2990 RMK AO2 T01250125
KSLR 241255Z AUTO 14003KT 3/4SM -VCTSRA OVC003 12/12 A2993 RMK AO2 LTG DSNT N AND NW T01210121
KSLR 241235Z AUTO 00000KT 1/2SM FG OVC003 12/12 A2994 RMK AO2 LTG DSNT W AND NW T01200120
KSLR 241215Z AUTO 00000KT 1/2SM FG OVC003 12/12 A2995 RMK AO2 LTG DSNT W T01180118
KSLR 241155Z AUTO 00000KT 1/2SM FG OVC003 12/12 A2996 RMK AO2 60001 70003 T01170117 10152 20113
KSLR 241135Z AUTO 09004KT 1/2SM FG OVC003 12/12 A2994 RMK AO2 LTG DSNT W T01160116
KSLR 241115Z AUTO 02004KT 1/2SM FG OVC003 11/11 A2995 RMK AO2 T01130113
KSLR 241055Z AUTO 36004KT 1/2SM FG OVC003 12/12 A2996 RMK AO2 P0001 T01150115
KSLR 241035Z AUTO 00000KT 1/2SM FG OVC003 12/12 A2996 RMK AO2 P0001 T01160116
KSLR 241015Z AUTO 00000KT 1/2SM FG OVC003 12/12 A2997 RMK AO2 T01180118
KSLR 240955Z AUTO 00000KT 1/2SM FG OVC003 12/12 A2997 RMK AO2 T01200120
KSLR 240935Z AUTO 00000KT 1/2SM FG OVC003 12/12 A2998 RMK AO2 T01220122
KSLR 240915Z AUTO 33003KT 3/4SM BR OVC003 12/12 A2998 RMK AO2 T01240124
KSLR 240855Z AUTO 31005KT 1/2SM FG OVC003 12/12 A2999 RMK AO2 T01230123
KSLR 240835Z AUTO 00000KT 1/4SM FG OVC003 12/12 A2999 RMK AO2 T01240124
KSLR 240815Z AUTO 31003KT 1/4SM FG OVC003 13/13 A2999 RMK AO2 T01250125
KSLR 240755Z AUTO 00000KT 1/4SM FG OVC003 13/13 A2999 RMK AO2 T01270127
KSLR 240735Z AUTO 32004KT 1/4SM FG OVC003 14/14 A3000 RMK AO2 T01410141
KSLR 240715Z AUTO 00000KT 1/4SM FG OVC003 14/14 A3001 RMK AO2 LTG DSNT N T01410141
KSLR 240655Z AUTO 00000KT 1/4SM FG OVC003 14/14 A3001 RMK AO2 LTG DSNT NE T01380138
KSLR 240635Z AUTO 30003KT 1/4SM FG OVC003 14/14 A3001 RMK AO2 T01410141
KSLR 240615Z AUTO 00000KT 1/4SM FG OVC003 15/15 A3001 RMK AO2 LTG DSNT N T01500150
KSLR 240555Z AUTO 00000KT 1/4SM FG OVC003 15/15 A3001 RMK AO2 LTG DSNT N T01510151 10155 20138 401550060
KSLR 240535Z AUTO 00000KT 1/2SM FG OVC003 15/15 A3002 RMK AO2 LTG DSNT N T01520152
KSLR 240515Z AUTO 27003KT 1/4SM FG OVC003 15/15 A3004 RMK AO2 T01500150
KSLR 240455Z AUTO 23003KT 1/2SM FG OVC003 15/15 A3004 RMK AO2 LTG DSNT N T01540154
KSLR 240435Z AUTO 26003KT 1/2SM FG OVC003 15/15 A3004 RMK AO2 LTG DSNT N T01530153
KSLR 240415Z AUTO 15004KT 1 3/4SM BR OVC003 16/16 A3004 RMK AO2 LTG DSNT N T01550155
KSLR 240355Z AUTO 14005KT 2 1/2SM BR OVC003 15/15 A3004 RMK AO2 T01520152
KSLR 240335Z AUTO 12006KT 1 1/4SM BR OVC003 15/15 A3004 RMK AO2 LTG DSNT N T01510151
KSLR 240315Z AUTO 12006KT 3SM BR BKN003 BKN020 OVC095 15/15 A3005 RMK AO2 LTG DSNT N T01520152
KSLR 240255Z AUTO 13005KT 3SM BR SCT005 BKN020 OVC095 15/15 A3006 RMK AO2 T01530153
KSLR 240235Z AUTO 13003KT 2 1/2SM BR BKN003 BKN010 OVC050 15/15 A3006 RMK AO2 LTG DSNT N T01510151
KSLR 240215Z AUTO 11006KT 1/2SM FG OVC003 15/15 A3006 RMK AO2 LTG DSNT N T01510151
KSLR 240155Z AUTO 12004KT 1/4SM FG OVC003 15/15 A3007 RMK AO2 LTG DSNT N T01520152
KSLR 240135Z AUTO 12004KT 1/2SM FG OVC003 15/15 A3006 RMK AO2 T01500150
KSLR 240115Z AUTO 09004KT 2SM BR OVC003 14/14 A3007 RMK AO2 LTG DSNT N AND NW T01440144
KSLR 240055Z AUTO 00000KT 2SM BR OVC003 14/14 A3007 RMK AO2 LTG DSNT NW T01400140
KSLR 240035Z AUTO 00000KT 3/4SM BR OVC003 14/14 A3007 RMK AO2 LTG DSNT NW T01400140
KSLR 240015Z AUTO 00000KT 1 3/4SM BR OVC003 15/15 A3007 RMK AO2 T01460146
KSLR 232355Z AUTO 10003KT 2SM BR OVC003 15/15 A3007 RMK AO2 T01470147 10147 20101
KSLR 232335Z AUTO 10003KT 2SM BR OVC003 15/15 A3008 RMK AO2 LTG DSNT N T01450145
KSLR 232315Z AUTO 00000KT 2SM BR OVC003 14/14 A3008 RMK AO2 T01440144
KSLR 232255Z AUTO 09004KT 1 3/4SM BR OVC003 14/14 A3008 RMK AO2 LTG DSNT NW T01400140
KSLR 232235Z AUTO 10004KT 1 1/4SM BR OVC003 14/14 A3009 RMK AO2 LTG DSNT NW T01360136
KSLR 232215Z AUTO 09006KT 1 1/4SM BR OVC003 13/13 A3009 RMK AO2 T01340134
KSLR 232155Z AUTO 10005KT 1SM BR OVC003 13/13 A3010 RMK AO2 LTG DSNT NW T01310131
KSLR 232135Z AUTO 10006KT 1 1/4SM BR OVC003 13/13 A3011 RMK AO2 LTG DSNT NW T01280128
KSLR 232115Z AUTO 09005KT 1 3/4SM BR OVC003 13/13 A3012 RMK AO2 T01250125